Terminal Aerodrome Forecast
Issued by NWS Binghamton, NY

Home | Current Version | Previous Version | Text Only | Print | Product List | Glossary On
Versions: 1 2 3 4 5 6 7 8 9 10 11 12 13 14 15 16 17 18
000
FTUS41 KBGM 051135
TAFBGM
TAF
KBGM 051135Z 0512/0612 36005KT 5SM BR SCT025
     FM051300 36006KT P6SM SCT025 BKN250
     FM051600 01005KT P6SM BKN050 BKN250
     FM060500 04005KT P6SM -RA OVC080
     FM060900 10005KT 5SM -RA OVC015=

USA.gov is the U.S. government's official web portal to all federal, state and local government web resources and services.